رشيد, مصر

08:43 AM EET on êèنêè 25, 2014 (GMT +0200)
Alexandria International (HEAX) Elev 23 ft | 31.18 °N, 29.95 °E | Change Station

Current weather conditions updated 1 hour ago

Scattered Clouds
غيوم متفرقة
79 °F
Feels Like 79 °F
N
5
ريح متغير ريح from NW

Today is forecast to be nearly the same temperature as yesterday.

هذا اليوم
High -- | Low -- °F
--% Chance of Precip.
Yesterday
High -- | Low -- °F
Precip. -- في
5:10 AM 6:59 PM
الهلال الأخير, 3% visible
الضغط 29.77 في
وضوح الرؤية 6.2 أميال
سحابات غيوم متفرقة 2000 ft
نقطة الندى 68 °F
الرطوبة 69%
Rainfall 0.00 في
عمق الثلج Not available.
الأشعة فوق البنفسجية 2 out of 12
Pollen Not available.
جودة الهواء Not available.
Flu Activity Not available.
METAR HEAX 250500Z 32004KT 9999 SCT020 26/20 Q1008 NOSIG

More Conditions Fewer Conditions

الضغط 29.77 في
وضوح الرؤية 6.2 أميال
سحابات غيوم متفرقة 2000 ft
نقطة الندى 68 °F
الرطوبة 69%
Rainfall 0.00 في
عمق الثلج Not available.
الأشعة فوق البنفسجية 2 out of 12
Pollen Not available.
جودة الهواء Not available.
Flu Activity Not available.
METAR HEAX 250500Z 32004KT 9999 SCT020 26/20 Q1008 NOSIG

More Conditions Fewer Conditions

10-Day Weather Forecast

Almanac

علم الفلك

Jul. 25, 2014 Rise Set
Actual Time 5:10 AM EET 6:59 PM EET
Civil Twilight 4:43 AM EET 7:26 PM EET
Nautical Twilight 4:10 AM EET 7:58 PM EET
Astronomical Twilight 3:36 AM EET 8:32 PM EET
قمر 3:50 AM EET 5:45 PM EET
Length Of Visible Light 14h 42m
طول الیوم
13h 49m
Tomorrow will be 1m 14s shorter.
الهلال الأخير, 3% of the Moon is Illuminated
هذا اليوم
الهلال الأخير
Jul 26
New
Aug 3
الربع الاول
Aug 10
بدر
Aug 17
الربع الآخر

Yesterday's Extremes

Country Highs Country Lows

Community

WunderPhotos

Upload Photos

1,737,265 photos uploaded!

Nearby

جودة الهواء

Not available.

عمق الثلج

Not available.

Earthquake Activity

City Distance Mag. Time & Date
No recent earthquake activity has been reported nearby.
Minimum magnitude displayed is 2.5.

Coastal Water Temperatures

مكان درجات الحرارة
No Stations Reporting

Nearby Weather Stations

There are no personal weather stations in this area.